• Join FlightAware (Why Join?)
  • Login
  • US Flag 
12:48PM EDT


 

Airport Tracker/Info


-or-


 

Live Flight TrackerFlight Track Log ✈ CTL22 ✈ 18-Apr-2013 ✈ KBKL - KGRR

Flight Track Log - Related Links

Times and Time Zones

All times are in EDT time to prevent confusion due to time zone crossing. See the CTL22 flight status page for this flight to view local times or setup timezone preferences in your user account.

Time Position Orientation Groundspeed Altitude Reporting Facility
EDT Latitude Longitude Course Direction KTS MPH feet Rate Location/Type
09:16PM 41.5522 -81.7014 326° Northwest 111 128 2,000  Level Cleveland Center
09:17PM 41.5642 -81.7403 292° West 123 142 3,000 900 Climbing Cleveland Center
09:18PM 41.5931 -81.7825 312° West 150 173 4,000 840 Climbing Cleveland Center
09:19PM 41.6156 -81.8303 302° West 132 152 4,900 840 Climbing Cleveland Center
09:20PM 41.6400 -81.8778 305° West 133 153 5,900 660 Climbing Cleveland Center
09:21PM 41.6500 -81.9031 298° West 133 153 6,000 180 Climbing Cleveland Center
09:21PM 41.6622 -81.9283 303° West 164 189 6,100  Climbing Cleveland Center
09:22PM 41.6867 -81.9844 300° West 165 190 6,000 -60 Descending Cleveland Center
09:23PM 41.7089 -82.0350 301° West 163 188 6,000  Level Cleveland Center
09:24PM 41.7333 -82.0883 302° West 165 190 6,100  Climbing Cleveland Center
09:25PM 41.7594 -82.1503 299° West 167 192 6,000 -60 Descending Cleveland Center
09:26PM 41.7778 -82.1897 302° West 166 191 6,000  Level Cleveland Center
09:27PM 41.8000 -82.2406 300° West 161 185 6,000  Level Cleveland Center
09:28PM 41.8222 -82.2939 299° West 162 186 6,000  Level Cleveland Center
09:29PM 41.8383 -82.3250 305° West 163 188 6,000  Level Cleveland Center
09:30PM 41.8644 -82.3844 301° West 162 186 6,000  Level Cleveland Center
09:31PM 41.8825 -82.4294 298° West 160 184 6,100  Climbing Cleveland Center
09:32PM 41.9108 -82.4889 303° West 165 190 6,000  Descending Cleveland Center
09:33PM 41.9328 -82.5425 299° West 163 188 6,100  Climbing Cleveland Center
09:34PM 41.9569 -82.5881 306° West 163 188 6,000  Descending Cleveland Center
09:35PM 41.9853 -82.6419 305° West 164 189 6,100  Climbing Cleveland Center
09:36PM 42.0072 -82.6931 300° West 165 190 6,100 -60 Level Cleveland Center
09:37PM 42.0314 -82.7383 306° West 164 189 6,000 -60 Descending Cleveland Center
09:38PM 42.0633 -82.8067 302° West 163 188 6,000  Level Cleveland Center
09:39PM 42.0853 -82.8606 299° West 162 186 6,100  Climbing Cleveland Center
09:40PM 42.1072 -82.9117 300° West 162 186 6,100 -60 Level Cleveland Center
09:41PM 42.1292 -82.9575 303° West 159 183 6,000 -60 Descending Cleveland Center
09:42PM 42.1447 -83.0111 291° West 152 175 6,000  Level Cleveland Center
09:43PM 42.1606 -83.0567 295° West 145 167 6,100  Climbing Cleveland Center
09:44PM 42.1761 -83.1078 292° West 142 163 6,000 -60 Descending Cleveland Center
09:45PM 42.1897 -83.1531 292° West 141 162 6,000  Level Cleveland Center
09:46PM 42.2072 -83.2097 293° West 132 152 6,000  Level Cleveland Center
09:47PM 42.2186 -83.2581 301° West 132 152 6,000  Level Cleveland Center
09:48PM 42.2322 -83.3006 293° West 129 148 6,000  Level Cleveland Center
09:49PM 42.2456 -83.3517 289° West 132 152 6,000  Level Cleveland Center
09:50PM 42.2589 -83.3972 292° West 130 150 6,100  Climbing Cleveland Center
09:51PM 42.2706 -83.4397 290° West 134 154 6,000 -240 Descending Cleveland Center
09:52PM 42.2878 -83.4967 292° West 134 154 5,700 -540 Descending Cleveland Center
09:53PM 42.3014 -83.5339 296° West 153 176 5,000 -840 Descending Cleveland Center
09:54PM 42.3186 -83.5936 291° West 170 196 4,300 -540 Descending Cleveland Center
09:55PM 42.3339 -83.6478 291° West 161 185 4,000 -180 Descending Cleveland Center
09:56PM 42.3508 -83.7189 288° West 144 166 4,000  Level Cleveland Center
09:57PM 42.3642 -83.7561 296° West 142 163 4,000  Level Cleveland Center
09:58PM 42.3775 -83.8072 289° West 145 167 4,000  Level Cleveland Center
09:59PM 42.3928 -83.8558 293° West 144 166 4,100  Climbing Cleveland Center
10:00PM 42.4081 -83.9017 294° West 144 166 4,000 -60 Descending Cleveland Center
10:02PM 42.4441 -83.9645 308° West  Level FlightAware Approximate
10:06PM 42.4889 -84.1872 293° West 135 155 4,000  Level Chicago Center
10:07PM 42.5031 -84.2361 291° West 137 158 4,000  Level Chicago Center
10:08PM 42.5161 -84.2856 290° West 138 159 4,000 -240 Level Chicago Center
10:09PM 42.5482 -84.3272 289° West  Level Estimated
10:09PM 42.5300 -84.3336 291° West 138 159 3,600  Level Chicago Center
10:10PM 42.5642 -84.3785 293° West  Level FlightAware Approximate
10:10PM 42.5453 -84.3864 291° West 142 163 3,100  Level Chicago Center
10:11PM 42.5803 -84.4297 293° West  Level FlightAware Approximate
10:11PM 42.5619 -84.4469 291° West 148 170 3,000  Level Chicago Center
10:12PM 42.5753 -84.4997 289° West 154 177 3,000 -60 Level Chicago Center
10:13PM 42.5908 -84.5528 292° West 155 178 2,900 -60 Descending Chicago Center
10:14PM 42.6047 -84.6031 291° West 146 168 2,900  Level Chicago Center
10:15PM 42.6211 -84.6578 292° West 153 176 3,000  Climbing Chicago Center
10:16PM 42.6406 -84.7208 293° West 153 176 3,000  Level Chicago Center
10:17PM 42.6475 -84.7733 280° West 145 167 3,000  Level Chicago Center
10:18PM 42.6583 -84.8278 285° West 151 174 3,000  Level Chicago Center
10:19PM 42.6756 -84.8822 293° West 155 178 3,000  Level Chicago Center
10:20PM 42.6886 -84.9364 288° West 154 177 3,000 -60 Level Chicago Center
10:21PM 42.7089 -84.9894 297° West 157 181 2,900  Descending Chicago Center
10:22PM 42.7225 -85.0461 288° West 159 183 3,000  Climbing Chicago Center
10:23PM 42.7414 -85.1089 292° West 152 175 3,000  Level Chicago Center
10:24PM 42.7558 -85.1647 289° West 154 177 3,000  Level Chicago Center
10:25PM 42.7747 -85.2192 295° West 160 184 3,100  Climbing Chicago Center
10:26PM 42.7967 -85.2736 299° West 164 189 3,000 -120 Descending Chicago Center
10:27PM 42.8200 -85.3267 301° West 164 189 2,900 -360 Descending Chicago Center
10:28PM 42.8431 -85.3856 298° West 169 194 2,300 -600 Descending Chicago Center
10:29PM 42.8672 -85.4464 298° West 177 204 1,700 -720 Descending Chicago Center
10:30PM 42.8797 -85.5017 287° West 160 184 900 -780 Descending Chicago Center
10:32PM 42.8667 -85.5167 270° West  Level FlightAware Approximate
10:39PM 42.8808 -85.5228 270° West  Level Estimated